createdAt,value
2022-12-26T00:01:09.666Z,7.73
2022-12-26T00:03:38.140Z,7.73
2022-12-26T00:06:14.492Z,7.76
2022-12-26T00:08:43.036Z,7.81
2022-12-26T00:11:10.967Z,7.88
2022-12-26T00:13:41.677Z,7.94
2022-12-26T00:16:19.481Z,7.96
2022-12-26T00:18:47.196Z,8.00
2022-12-26T00:21:16.777Z,8.05
2022-12-26T00:23:44.130Z,8.13
2022-12-26T00:26:17.769Z,8.19
2022-12-26T00:28:45.749Z,8.25
2022-12-26T00:31:18.379Z,8.31
2022-12-26T00:33:46.008Z,8.34
2022-12-26T00:36:28.124Z,8.26
2022-12-26T00:38:56.355Z,8.19
2022-12-26T00:41:23.748Z,8.17
2022-12-26T00:43:51.210Z,8.12
2022-12-26T00:46:19.570Z,8.09
2022-12-26T00:48:47.398Z,8.02
2022-12-26T00:51:15.699Z,8.01
2022-12-26T00:53:43.503Z,8.04
2022-12-26T00:56:11.109Z,8.11
2022-12-26T00:58:38.176Z,8.19
2022-12-26T01:01:20.000Z,8.27
2022-12-26T01:03:49.054Z,8.29
2022-12-26T01:06:17.660Z,8.32
2022-12-26T01:08:45.051Z,8.37
2022-12-26T01:11:15.267Z,8.41
2022-12-26T01:13:42.955Z,8.47
2022-12-26T01:16:10.338Z,8.50
2022-12-26T01:18:37.365Z,8.54
2022-12-26T01:21:10.221Z,8.53
2022-12-26T01:23:38.487Z,8.56
2022-12-26T01:26:18.263Z,8.61
2022-12-26T01:28:48.356Z,8.63
2022-12-26T01:31:16.148Z,8.63
2022-12-26T01:33:43.070Z,8.64
2022-12-26T01:36:10.701Z,8.67
2022-12-26T01:38:37.876Z,8.68
2022-12-26T01:41:17.667Z,8.69
2022-12-26T01:44:01.465Z,8.70
2022-12-26T01:46:45.565Z,8.67
2022-12-26T01:49:43.476Z,8.64
2022-12-26T01:52:23.860Z,8.66
2022-12-26T01:54:54.838Z,8.62
2022-12-26T01:57:33.658Z,8.65
2022-12-26T02:00:03.907Z,8.65
2022-12-26T02:02:51.889Z,8.66
2022-12-26T02:05:34.604Z,8.67
2022-12-26T02:08:23.161Z,8.70
2022-12-26T02:11:08.360Z,8.73
2022-12-26T02:13:40.553Z,8.77
2022-12-26T02:16:13.891Z,8.78
2022-12-26T02:18:41.621Z,8.77
2022-12-26T02:21:41.188Z,8.84
2022-12-26T02:25:08.065Z,8.90
2022-12-26T02:28:07.673Z,8.93
2022-12-26T02:31:00.586Z,9.00
2022-12-26T02:33:40.674Z,9.02
2022-12-26T02:36:54.373Z,9.06
2022-12-26T02:39:44.030Z,9.05
2022-12-26T02:42:35.869Z,9.07
2022-12-26T02:46:05.157Z,9.08
2022-12-26T02:49:53.744Z,9.12
2022-12-26T02:52:55.914Z,9.14
2022-12-26T02:55:47.872Z,9.14
2022-12-26T02:58:44.356Z,9.11
2022-12-26T03:02:01.221Z,9.14
2022-12-26T03:04:53.668Z,9.18
2022-12-26T03:07:52.054Z,9.21
2022-12-26T03:10:42.806Z,9.25
2022-12-26T03:13:24.200Z,9.24
2022-12-26T03:16:17.895Z,9.27
2022-12-26T03:18:58.860Z,9.28
2022-12-26T03:21:41.169Z,9.32
2022-12-26T03:24:13.252Z,9.31
2022-12-26T03:26:50.497Z,9.35
2022-12-26T03:29:40.921Z,9.36
2022-12-26T03:32:12.748Z,9.36
2022-12-26T03:34:44.956Z,9.39
2022-12-26T03:37:51.068Z,9.40
2022-12-26T03:41:07.375Z,9.43
2022-12-26T03:44:17.357Z,9.44
2022-12-26T03:47:25.464Z,9.45
2022-12-26T03:50:20.067Z,9.45
2022-12-26T03:53:50.224Z,9.46
2022-12-26T03:56:48.561Z,9.48
2022-12-26T03:59:48.201Z,9.49
2022-12-26T04:02:37.765Z,9.48
2022-12-26T04:05:27.679Z,9.49
2022-12-26T04:08:20.748Z,9.48
2022-12-26T04:11:14.093Z,9.46
2022-12-26T04:14:22.971Z,9.45
2022-12-26T04:17:21.470Z,9.43
2022-12-26T04:20:05.600Z,9.40
2022-12-26T04:23:13.751Z,9.42
2022-12-26T04:26:20.846Z,9.41
2022-12-26T04:29:06.761Z,9.41
2022-12-26T04:32:00.924Z,9.42
2022-12-26T04:35:06.845Z,9.45
2022-12-26T04:37:55.169Z,9.46
2022-12-26T04:40:48.201Z,9.48
2022-12-26T04:43:49.977Z,9.46
2022-12-26T04:46:23.894Z,9.48
2022-12-26T04:49:13.673Z,9.46
2022-12-26T04:51:40.919Z,9.52
2022-12-26T04:54:07.999Z,9.50
2022-12-26T04:56:35.949Z,9.54
2022-12-26T04:59:03.494Z,9.53
2022-12-26T05:01:49.861Z,9.57
2022-12-26T05:04:37.701Z,9.58
2022-12-26T05:07:33.592Z,9.58
2022-12-26T05:10:00.952Z,9.58
2022-12-26T05:12:28.256Z,9.61
2022-12-26T05:14:55.356Z,9.60
2022-12-26T05:17:41.067Z,9.61
2022-12-26T05:20:30.926Z,9.64
2022-12-26T05:23:21.091Z,9.67
2022-12-26T05:26:07.402Z,9.69
2022-12-26T05:28:44.072Z,9.73
2022-12-26T05:31:17.432Z,9.75
2022-12-26T05:34:04.383Z,9.77
2022-12-26T05:36:51.594Z,9.78
2022-12-26T05:39:19.762Z,9.83
2022-12-26T05:41:46.906Z,9.81
2022-12-26T05:44:14.219Z,9.84
2022-12-26T05:46:42.655Z,9.87
2022-12-26T05:49:10.407Z,9.88
2022-12-26T05:51:37.500Z,9.89
2022-12-26T05:54:05.158Z,9.92
2022-12-26T05:56:32.063Z,9.94
2022-12-26T05:59:01.709Z,9.93
2022-12-26T06:01:30.593Z,9.97
2022-12-26T06:04:00.239Z,9.99
2022-12-26T06:06:28.101Z,10.01
2022-12-26T06:08:57.089Z,10.02
2022-12-26T06:11:26.758Z,9.99
2022-12-26T06:13:55.371Z,10.02
2022-12-26T06:16:22.850Z,10.02
2022-12-26T06:18:50.134Z,10.03
2022-12-26T06:21:21.254Z,10.03
2022-12-26T06:23:50.444Z,10.04
2022-12-26T06:26:17.848Z,10.03
2022-12-26T06:28:46.735Z,10.07
2022-12-26T06:31:21.488Z,10.04
2022-12-26T06:33:54.382Z,10.09
2022-12-26T06:36:25.141Z,10.10
2022-12-26T06:38:53.200Z,10.12
2022-12-26T06:41:23.424Z,10.10
2022-12-26T06:43:52.002Z,10.16
2022-12-26T06:46:22.911Z,10.16
2022-12-26T06:48:50.480Z,10.21
2022-12-26T06:51:22.926Z,10.26
2022-12-26T06:53:52.094Z,10.32
2022-12-26T06:56:23.821Z,10.34
2022-12-26T06:58:56.353Z,10.32
2022-12-26T07:01:26.134Z,10.39
2022-12-26T07:03:54.807Z,10.41
2022-12-26T07:06:21.881Z,10.43
2022-12-26T07:08:49.210Z,10.44
2022-12-26T07:11:20.922Z,10.43
2022-12-26T07:13:48.091Z,10.39
2022-12-26T07:16:15.791Z,10.44
2022-12-26T07:18:43.356Z,10.46
2022-12-26T07:21:14.706Z,10.49
2022-12-26T07:23:42.686Z,10.49
2022-12-26T07:26:10.334Z,10.51
2022-12-26T07:28:38.512Z,10.50
2022-12-26T07:31:06.427Z,10.50
2022-12-26T07:33:34.628Z,10.50
2022-12-26T07:36:05.184Z,10.51
2022-12-26T07:38:35.342Z,10.54
2022-12-26T07:41:22.466Z,10.56
2022-12-26T07:43:49.393Z,10.57
2022-12-26T07:46:16.813Z,10.60
2022-12-26T07:48:43.918Z,10.61
2022-12-26T07:51:11.564Z,10.62
2022-12-26T07:53:38.728Z,10.63
2022-12-26T07:56:06.546Z,10.66
2022-12-26T07:58:33.471Z,10.71
2022-12-26T08:01:02.492Z,10.72
2022-12-26T08:03:29.773Z,10.73
2022-12-26T08:05:57.728Z,10.75
2022-12-26T08:08:24.775Z,10.76
2022-12-26T08:11:03.219Z,10.76
2022-12-26T08:13:30.855Z,10.78
2022-12-26T08:15:58.979Z,10.77
2022-12-26T08:18:26.610Z,10.78
2022-12-26T08:20:53.848Z,10.80
2022-12-26T08:23:20.739Z,10.84
2022-12-26T08:25:48.020Z,10.82
2022-12-26T08:28:15.154Z,10.86
2022-12-26T08:30:43.157Z,10.85
2022-12-26T08:33:11.928Z,10.85
2022-12-26T08:35:40.178Z,10.87
2022-12-26T08:38:07.490Z,10.90
2022-12-26T08:40:43.601Z,10.91
2022-12-26T08:43:31.914Z,10.92
2022-12-26T08:46:05.887Z,10.93
2022-12-26T08:48:34.778Z,10.92
2022-12-26T08:51:06.852Z,10.92
2022-12-26T08:53:35.845Z,10.96
2022-12-26T08:56:06.929Z,10.98
2022-12-26T08:58:35.317Z,10.98
2022-12-26T09:01:15.041Z,11.03
2022-12-26T09:03:42.942Z,11.04
2022-12-26T09:06:13.582Z,11.05
2022-12-26T09:08:42.594Z,11.08
2022-12-26T09:11:23.509Z,11.11
2022-12-26T09:13:50.701Z,11.12
2022-12-26T09:16:27.435Z,11.17
2022-12-26T09:18:59.706Z,11.20
2022-12-26T09:21:28.806Z,11.24
2022-12-26T09:24:01.978Z,11.27
2022-12-26T09:26:30.164Z,11.29
2022-12-26T09:28:57.801Z,11.33
2022-12-26T09:31:31.579Z,11.33
2022-12-26T09:34:01.184Z,11.39
2022-12-26T09:36:35.321Z,11.41
2022-12-26T09:39:02.603Z,11.43
2022-12-26T09:42:08.710Z,11.44
2022-12-26T09:44:35.699Z,11.45
2022-12-26T09:47:40.425Z,11.49
2022-12-26T09:50:14.993Z,11.50
2022-12-26T09:53:05.239Z,11.53
2022-12-26T09:55:51.450Z,11.54
2022-12-26T09:58:31.558Z,11.56
2022-12-26T10:01:11.627Z,11.61
2022-12-26T10:03:47.782Z,11.63
2022-12-26T10:06:34.089Z,11.68
2022-12-26T10:09:38.196Z,11.71
2022-12-26T10:12:05.058Z,11.72
2022-12-26T10:14:55.838Z,11.73
2022-12-26T10:17:44.601Z,11.75
2022-12-26T10:20:39.998Z,11.78
2022-12-26T10:23:47.574Z,11.79
2022-12-26T10:26:23.121Z,11.83
2022-12-26T10:29:15.371Z,11.86
2022-12-26T10:31:58.425Z,11.88
2022-12-26T10:34:45.535Z,11.93
2022-12-26T10:37:40.801Z,12.01
2022-12-26T10:40:25.055Z,12.04
2022-12-26T10:43:20.598Z,12.13
2022-12-26T10:46:15.539Z,12.21
2022-12-26T10:48:42.876Z,12.26
2022-12-26T10:51:10.189Z,12.32
2022-12-26T10:53:45.802Z,12.39
2022-12-26T10:56:16.482Z,12.42
2022-12-26T10:58:47.486Z,12.45
2022-12-26T11:01:52.943Z,12.42
2022-12-26T11:05:02.190Z,12.52
2022-12-26T11:07:13.164Z,12.65
2022-12-26T11:09:45.828Z,12.75
2022-12-26T11:12:50.167Z,12.79
2022-12-26T11:15:37.805Z,12.83
2022-12-26T11:18:28.045Z,12.91
2022-12-26T11:20:55.346Z,12.91
2022-12-26T11:23:27.078Z,12.97
2022-12-26T11:25:58.730Z,12.97
2022-12-26T11:28:37.495Z,13.02
2022-12-26T11:31:08.023Z,12.99
2022-12-26T11:33:46.654Z,12.95
2022-12-26T11:36:16.934Z,12.93
2022-12-26T11:39:05.221Z,12.95
2022-12-26T11:41:42.538Z,13.04
2022-12-26T11:44:35.988Z,12.98
2022-12-26T11:47:17.289Z,12.97
2022-12-26T11:50:12.125Z,13.01
2022-12-26T11:52:57.518Z,13.03
2022-12-26T11:55:24.819Z,13.04
2022-12-26T11:58:10.378Z,13.02
2022-12-26T12:01:07.205Z,12.95
2022-12-26T12:03:48.546Z,12.97
2022-12-26T12:06:34.435Z,12.94
2022-12-26T12:09:07.358Z,13.00
2022-12-26T12:12:05.806Z,13.03
2022-12-26T12:15:30.537Z,13.06
2022-12-26T12:18:41.332Z,12.99
2022-12-26T12:21:36.579Z,12.99
2022-12-26T12:24:18.993Z,12.93
2022-12-26T12:27:09.437Z,12.99
2022-12-26T12:30:01.655Z,13.05
2022-12-26T12:33:06.029Z,13.03
2022-12-26T12:36:11.710Z,12.99
2022-12-26T12:39:15.271Z,12.94
2022-12-26T12:42:06.287Z,12.92
2022-12-26T12:44:56.854Z,12.96
2022-12-26T12:47:26.784Z,12.95
2022-12-26T12:49:53.938Z,12.94
2022-12-26T12:52:49.313Z,12.91
2022-12-26T12:55:41.410Z,12.84
2022-12-26T12:58:23.434Z,12.69
2022-12-26T13:01:29.385Z,12.74
2022-12-26T13:04:22.635Z,12.71
2022-12-26T13:06:57.385Z,12.65
2022-12-26T13:09:31.807Z,12.64
2022-12-26T13:12:08.383Z,12.59
2022-12-26T13:14:59.772Z,12.61
2022-12-26T13:17:45.965Z,12.52
2022-12-26T13:20:27.325Z,12.59
2022-12-26T13:23:23.103Z,12.53
2022-12-26T13:26:16.525Z,12.48
2022-12-26T13:29:20.560Z,12.49
2022-12-26T13:31:48.041Z,12.45
2022-12-26T13:34:20.064Z,12.33
2022-12-26T13:36:52.431Z,12.33
2022-12-26T13:39:28.022Z,12.27
2022-12-26T13:42:37.368Z,12.20
2022-12-26T13:45:37.312Z,12.13
2022-12-26T13:48:16.164Z,12.23
2022-12-26T13:50:56.187Z,12.23
2022-12-26T13:53:59.674Z,12.22
2022-12-26T13:56:26.762Z,12.22
2022-12-26T13:59:26.155Z,12.30
2022-12-26T14:02:14.641Z,12.29
2022-12-26T14:05:52.406Z,12.28
2022-12-26T14:08:34.348Z,12.33
2022-12-26T14:11:44.335Z,12.33
2022-12-26T14:14:59.748Z,12.33
2022-12-26T14:18:00.744Z,12.34
2022-12-26T14:20:51.916Z,12.29
2022-12-26T14:23:47.197Z,12.28
2022-12-26T14:26:52.946Z,12.17
2022-12-26T14:29:51.058Z,12.21
2022-12-26T14:32:53.489Z,12.19
2022-12-26T14:35:39.640Z,12.14
2022-12-26T14:38:52.823Z,12.09
2022-12-26T14:41:39.345Z,12.01
2022-12-26T14:44:22.012Z,12.08
2022-12-26T14:46:48.871Z,12.08
2022-12-26T14:49:35.897Z,12.05
2022-12-26T14:52:24.974Z,12.06
2022-12-26T14:54:53.973Z,12.07
2022-12-26T14:57:50.680Z,12.06
2022-12-26T15:00:20.882Z,12.07
2022-12-26T15:03:01.645Z,12.06
2022-12-26T15:05:39.219Z,12.09
2022-12-26T15:08:46.149Z,12.08
2022-12-26T15:11:39.533Z,12.05
2022-12-26T15:14:49.481Z,12.06
2022-12-26T15:17:45.602Z,12.10
2022-12-26T15:20:44.451Z,12.09
2022-12-26T15:23:49.300Z,12.02
2022-12-26T15:26:33.197Z,12.01
2022-12-26T15:29:21.065Z,11.88
2022-12-26T15:32:03.912Z,11.90
2022-12-26T15:35:14.590Z,11.92
2022-12-26T15:38:34.138Z,11.88
2022-12-26T15:41:31.760Z,11.89
2022-12-26T15:44:38.680Z,11.83
2022-12-26T15:47:44.408Z,11.75
2022-12-26T15:50:43.620Z,11.74
2022-12-26T15:53:41.601Z,11.69
2022-12-26T15:57:01.670Z,11.64
2022-12-26T16:00:10.074Z,11.66
2022-12-26T16:02:48.080Z,11.71
2022-12-26T16:05:52.425Z,11.61
2022-12-26T16:08:31.553Z,11.64
2022-12-26T16:11:10.916Z,11.58
2022-12-26T16:13:51.116Z,11.64
2022-12-26T16:16:35.604Z,11.65
2022-12-26T16:19:18.732Z,11.68
2022-12-26T16:22:23.241Z,11.67
2022-12-26T16:24:52.362Z,11.72
2022-12-26T16:27:24.124Z,11.63
2022-12-26T16:30:11.400Z,11.61
2022-12-26T16:32:43.261Z,11.56
2022-12-26T16:35:26.605Z,11.50
2022-12-26T16:37:58.108Z,11.51
2022-12-26T16:40:30.913Z,11.55
2022-12-26T16:43:22.120Z,11.54
2022-12-26T16:45:54.722Z,11.47
2022-12-26T16:48:26.066Z,11.48
2022-12-26T16:51:07.457Z,11.48
2022-12-26T16:53:40.571Z,11.46
2022-12-26T16:56:31.162Z,11.53
2022-12-26T16:59:12.632Z,11.53
2022-12-26T17:01:54.699Z,11.59
2022-12-26T17:04:26.687Z,11.57
2022-12-26T17:07:06.848Z,11.54
2022-12-26T17:09:49.798Z,11.52
2022-12-26T17:12:39.599Z,11.53
2022-12-26T17:15:08.258Z,11.54
2022-12-26T17:17:38.584Z,11.57
2022-12-26T17:20:24.567Z,11.63
2022-12-26T17:22:57.232Z,11.56
2022-12-26T17:25:33.797Z,11.59
2022-12-26T17:28:23.174Z,11.63
2022-12-26T17:30:53.435Z,11.62
2022-12-26T17:33:27.440Z,11.64
2022-12-26T17:39:24.869Z,11.64
2022-12-26T17:42:00.271Z,11.63
2022-12-26T17:44:34.623Z,11.56
2022-12-26T17:47:28.634Z,11.56
2022-12-26T17:49:57.151Z,11.54
2022-12-26T17:52:30.172Z,11.58
2022-12-26T17:54:58.547Z,11.60
2022-12-26T17:57:29.066Z,11.52
2022-12-26T17:59:57.489Z,11.55
2022-12-26T18:02:25.075Z,11.46
2022-12-26T18:04:52.550Z,11.42
2022-12-26T18:07:31.123Z,11.40
2022-12-26T18:10:01.938Z,11.36
2022-12-26T18:12:29.411Z,11.40
2022-12-26T18:15:01.662Z,11.40
2022-12-26T18:17:33.543Z,11.36
2022-12-26T18:20:01.971Z,11.42
2022-12-26T18:22:29.246Z,11.38
2022-12-26T18:24:56.183Z,11.40
2022-12-26T18:27:30.916Z,11.40
2022-12-26T18:29:59.147Z,11.40
2022-12-26T18:32:33.946Z,11.36
2022-12-26T18:35:01.285Z,11.32
2022-12-26T18:37:30.692Z,11.28
2022-12-26T18:39:57.606Z,11.23
2022-12-26T18:42:26.307Z,11.28
2022-12-26T18:44:53.231Z,11.22
2022-12-26T18:47:22.478Z,11.21
2022-12-26T18:49:50.157Z,11.25
2022-12-26T18:52:18.137Z,11.23
2022-12-26T18:54:45.480Z,11.15
2022-12-26T18:57:20.261Z,11.17
2022-12-26T18:59:48.338Z,11.17
2022-12-26T19:02:19.177Z,11.24
2022-12-26T19:04:48.629Z,11.26
2022-12-26T19:07:20.489Z,11.28
2022-12-26T19:09:54.926Z,11.21
2022-12-26T19:12:24.541Z,11.23
2022-12-26T19:14:52.504Z,11.25
2022-12-26T19:17:19.759Z,11.06
2022-12-26T19:19:47.866Z,11.10
2022-12-26T19:22:15.046Z,11.13
2022-12-26T19:24:41.977Z,11.17
2022-12-26T19:27:09.149Z,11.19
2022-12-26T19:29:36.192Z,11.15
2022-12-26T19:32:04.394Z,11.17
2022-12-26T19:34:31.445Z,11.17
2022-12-26T19:36:58.902Z,11.07
2022-12-26T19:39:26.775Z,11.10
2022-12-26T19:41:53.979Z,11.02
2022-12-26T19:44:20.925Z,11.04
2022-12-26T19:46:48.156Z,10.99
2022-12-26T19:49:15.207Z,10.94
2022-12-26T19:51:42.437Z,10.96
2022-12-26T19:54:09.381Z,10.95
2022-12-26T19:56:36.653Z,10.96
2022-12-26T19:59:04.011Z,10.97
2022-12-26T20:01:33.147Z,11.02
2022-12-26T20:04:04.151Z,11.03
2022-12-26T20:06:35.585Z,11.05
2022-12-26T20:09:09.444Z,11.06
2022-12-26T20:11:44.263Z,11.04
2022-12-26T20:14:16.714Z,11.08
2022-12-26T20:17:05.035Z,11.11
2022-12-26T20:19:31.659Z,11.12
2022-12-26T20:21:58.870Z,11.15
2022-12-26T20:24:25.994Z,11.15
2022-12-26T20:26:53.256Z,11.17
2022-12-26T20:29:20.468Z,11.20
2022-12-26T20:31:47.827Z,11.25
2022-12-26T20:34:14.841Z,11.25
2022-12-26T20:36:42.134Z,11.28
2022-12-26T20:39:17.320Z,11.20
2022-12-26T20:41:45.829Z,11.20
2022-12-26T20:44:14.786Z,11.13
2022-12-26T20:46:43.539Z,10.89
2022-12-26T20:49:11.256Z,10.78
2022-12-26T20:51:41.917Z,10.68
2022-12-26T20:54:12.173Z,10.53
2022-12-26T20:56:40.465Z,10.41
2022-12-26T20:59:08.080Z,10.28
2022-12-26T21:01:37.627Z,10.10
2022-12-26T21:04:05.604Z,9.94
2022-12-26T21:06:36.490Z,9.89
2022-12-26T21:09:06.666Z,9.80
2022-12-26T21:11:39.134Z,9.74
2022-12-26T21:14:13.102Z,9.65
2022-12-26T21:16:54.112Z,9.63
2022-12-26T21:19:23.698Z,9.63
2022-12-26T21:21:54.686Z,9.61
2022-12-26T21:24:31.878Z,9.53
2022-12-26T21:26:59.422Z,9.53
2022-12-26T21:29:30.641Z,9.55
2022-12-26T21:31:59.617Z,9.57
2022-12-26T21:34:30.641Z,9.50
2022-12-26T21:37:17.449Z,9.53
2022-12-26T21:39:45.337Z,9.54
2022-12-26T21:42:12.589Z,9.50
2022-12-26T21:44:39.728Z,9.46
2022-12-26T21:47:10.192Z,9.48
2022-12-26T21:49:37.762Z,9.49
2022-12-26T21:52:07.154Z,9.48
2022-12-26T21:54:53.163Z,9.49
2022-12-26T21:57:21.597Z,9.51
2022-12-26T21:59:58.466Z,9.49
2022-12-26T22:02:53.945Z,9.50
2022-12-26T22:05:25.021Z,9.56
2022-12-26T22:07:58.430Z,9.54
2022-12-26T22:10:49.475Z,9.57
2022-12-26T22:13:18.321Z,9.59
2022-12-26T22:16:03.865Z,9.56
2022-12-26T22:18:43.018Z,9.51
2022-12-26T22:21:13.911Z,9.47
2022-12-26T22:23:43.276Z,9.53
2022-12-26T22:26:14.215Z,9.51
2022-12-26T22:28:42.493Z,9.48
2022-12-26T22:31:23.929Z,9.43
2022-12-26T22:34:01.520Z,9.41
2022-12-26T22:36:30.324Z,9.46
2022-12-26T22:38:59.385Z,9.39
2022-12-26T22:41:27.911Z,9.37
2022-12-26T22:43:55.815Z,9.33
2022-12-26T22:46:23.086Z,9.35
2022-12-26T22:48:50.724Z,9.38
2022-12-26T22:51:24.565Z,9.31
2022-12-26T22:53:57.177Z,9.32
2022-12-26T22:56:24.666Z,9.30
2022-12-26T22:58:57.422Z,9.20
2022-12-26T23:01:24.519Z,9.14
2022-12-26T23:03:51.822Z,9.00
2022-12-26T23:06:32.526Z,9.01
2022-12-26T23:09:04.176Z,9.03
2022-12-26T23:11:35.872Z,9.01
2022-12-26T23:14:05.841Z,8.96
2022-12-26T23:16:41.513Z,8.82
2022-12-26T23:20:00.140Z,8.81
2022-12-26T23:22:27.697Z,8.70
2022-12-26T23:24:54.866Z,8.71
2022-12-26T23:27:40.319Z,8.69
2022-12-26T23:30:20.319Z,8.73
2022-12-26T23:32:53.541Z,8.76
2022-12-26T23:35:22.784Z,8.76
2022-12-26T23:37:50.538Z,8.76
2022-12-26T23:40:20.309Z,8.73
2022-12-26T23:42:47.514Z,8.64
2022-12-26T23:45:15.707Z,8.61
2022-12-26T23:47:45.965Z,8.61
2022-12-26T23:50:15.617Z,8.57
2022-12-26T23:52:44.159Z,8.43
2022-12-26T23:55:11.820Z,8.40
2022-12-26T23:57:38.989Z,8.34
